sensor_id;sensor_type;location;lat;lon;timestamp;temperature;humidity
21312;DHT22;18076;52.154;10.570;2023-10-09T09:13:42;15.00;99.90
21312;DHT22;18076;52.154;10.570;2023-10-09T09:16:14;15.00;99.90
21312;DHT22;18076;52.154;10.570;2023-10-09T09:18:50;15.10;99.90
21312;DHT22;18076;52.154;10.570;2023-10-09T09:21:43;15.00;99.90
21312;DHT22;18076;52.154;10.570;2023-10-09T09:24:13;15.10;99.90
21312;DHT22;18076;52.154;10.570;2023-10-09T09:26:55;15.10;99.90
21312;DHT22;18076;52.154;10.570;2023-10-09T09:29:45;15.10;99.90
21312;DHT22;18076;52.154;10.570;2023-10-09T09:32:26;15.10;99.90
21312;DHT22;18076;52.154;10.570;2023-10-09T09:34:55;15.10;99.90
21312;DHT22;18076;52.154;10.570;2023-10-09T09:37:30;15.10;99.90
21312;DHT22;18076;52.154;10.570;2023-10-09T09:39:57;15.10;99.90
21312;DHT22;18076;52.154;10.570;2023-10-09T09:42:23;15.10;99.90
21312;DHT22;18076;52.154;10.570;2023-10-09T09:44:52;15.20;99.90
21312;DHT22;18076;52.154;10.570;2023-10-09T09:47:18;15.20;99.90
21312;DHT22;18076;52.154;10.570;2023-10-09T10:30:32;15.10;99.90
21312;DHT22;18076;52.154;10.570;2023-10-09T10:36:24;15.20;99.90
21312;DHT22;18076;52.154;10.570;2023-10-09T10:39:07;15.20;99.90
21312;DHT22;18076;52.154;10.570;2023-10-09T10:41:36;15.20;99.90
21312;DHT22;18076;52.154;10.570;2023-10-09T10:44:23;15.30;99.90
21312;DHT22;18076;52.154;10.570;2023-10-09T10:47:10;15.30;99.90
21312;DHT22;18076;52.154;10.570;2023-10-09T10:49:50;15.40;99.90
21312;DHT22;18076;52.154;10.570;2023-10-09T10:52:22;15.40;99.90
21312;DHT22;18076;52.154;10.570;2023-10-09T10:54:48;15.50;99.90
21312;DHT22;18076;52.154;10.570;2023-10-09T10:57:35;15.50;99.90
21312;DHT22;18076;52.154;10.570;2023-10-09T11:00:19;15.50;99.90
21312;DHT22;18076;52.154;10.570;2023-10-09T11:03:03;15.50;99.90
21312;DHT22;18076;52.154;10.570;2023-10-09T11:05:43;15.50;99.90
21312;DHT22;18076;52.154;10.570;2023-10-09T11:08:14;15.50;99.90
21312;DHT22;18076;52.154;10.570;2023-10-09T11:10:40;15.50;99.90
21312;DHT22;18076;52.154;10.570;2023-10-09T11:13:22;15.50;99.90
21312;DHT22;18076;52.154;10.570;2023-10-09T11:15:58;15.50;99.90
21312;DHT22;18076;52.154;10.570;2023-10-09T11:19:03;15.50;99.90
21312;DHT22;18076;52.154;10.570;2023-10-09T11:21:38;15.50;99.90
21312;DHT22;18076;52.154;10.570;2023-10-09T11:24:08;15.50;99.90
21312;DHT22;18076;52.154;10.570;2023-10-09T11:26:51;15.50;99.90
21312;DHT22;18076;52.154;10.570;2023-10-09T11:29:21;15.50;99.90
21312;DHT22;18076;52.154;10.570;2023-10-09T11:32:06;15.50;99.90
21312;DHT22;18076;52.154;10.570;2023-10-09T11:34:34;15.50;99.90
21312;DHT22;18076;52.154;10.570;2023-10-09T11:37:02;15.50;99.90
21312;DHT22;18076;52.154;10.570;2023-10-09T11:39:29;15.50;99.90
21312;DHT22;18076;52.154;10.570;2023-10-09T11:42:06;15.40;99.90
21312;DHT22;18076;52.154;10.570;2023-10-09T11:44:36;15.40;99.90
21312;DHT22;18076;52.154;10.570;2023-10-09T11:47:05;15.50;99.90
21312;DHT22;18076;52.154;10.570;2023-10-09T11:50:00;15.40;99.90
21312;DHT22;18076;52.154;10.570;2023-10-09T11:52:26;15.40;99.90
21312;DHT22;18076;52.154;10.570;2023-10-09T11:55:04;15.40;99.90
21312;DHT22;18076;52.154;10.570;2023-10-09T11:57:33;15.50;99.90
21312;DHT22;18076;52.154;10.570;2023-10-09T12:25:53;15.70;99.90
21312;DHT22;18076;52.154;10.570;2023-10-09T12:28:22;15.70;99.90
21312;DHT22;18076;52.154;10.570;2023-10-09T12:30:48;15.60;99.90
21312;DHT22;18076;52.154;10.570;2023-10-09T12:33:17;15.70;99.90
21312;DHT22;18076;52.154;10.570;2023-10-09T12:35:45;15.70;99.90
21312;DHT22;18076;52.154;10.570;2023-10-09T12:38:12;15.60;99.90
21312;DHT22;18076;52.154;10.570;2023-10-09T12:40:39;15.60;99.90
21312;DHT22;18076;52.154;10.570;2023-10-09T12:43:19;15.60;99.90
21312;DHT22;18076;52.154;10.570;2023-10-09T12:45:47;15.60;99.90
21312;DHT22;18076;52.154;10.570;2023-10-09T12:48:13;15.60;99.90
21312;DHT22;18076;52.154;10.570;2023-10-09T12:50:40;15.60;99.90
21312;DHT22;18076;52.154;10.570;2023-10-09T12:53:10;15.50;99.90
21312;DHT22;18076;52.154;10.570;2023-10-09T12:55:39;15.50;99.90
21312;DHT22;18076;52.154;10.570;2023-10-09T12:58:09;15.50;99.90
21312;DHT22;18076;52.154;10.570;2023-10-09T13:00:37;15.50;99.90
21312;DHT22;18076;52.154;10.570;2023-10-09T13:03:27;15.50;99.90
21312;DHT22;18076;52.154;10.570;2023-10-09T13:06:01;15.50;99.90
21312;DHT22;18076;52.154;10.570;2023-10-09T13:08:32;15.60;99.90
21312;DHT22;18076;52.154;10.570;2023-10-09T13:11:02;15.60;99.90
21312;DHT22;18076;52.154;10.570;2023-10-09T13:13:33;15.60;99.90
21312;DHT22;18076;52.154;10.570;2023-10-09T13:16:20;15.60;99.90
21312;DHT22;18076;52.154;10.570;2023-10-09T13:18:53;15.60;99.90
21312;DHT22;18076;52.154;10.570;2023-10-09T13:21:19;15.50;99.90
21312;DHT22;18076;52.154;10.570;2023-10-09T13:23:45;15.60;99.90
21312;DHT22;18076;52.154;10.570;2023-10-09T13:26:15;15.60;99.90
21312;DHT22;18076;52.154;10.570;2023-10-09T13:28:45;15.60;99.90
21312;DHT22;18076;52.154;10.570;2023-10-09T13:31:11;15.60;99.90
21312;DHT22;18076;52.154;10.570;2023-10-09T13:33:42;15.60;99.90
21312;DHT22;18076;52.154;10.570;2023-10-09T13:36:09;15.60;99.90
21312;DHT22;18076;52.154;10.570;2023-10-09T13:38:55;15.60;99.90
21312;DHT22;18076;52.154;10.570;2023-10-09T13:41:24;15.70;99.90
21312;DHT22;18076;52.154;10.570;2023-10-09T13:46:41;15.70;99.90
21312;DHT22;18076;52.154;10.570;2023-10-09T13:49:18;15.70;99.90
21312;DHT22;18076;52.154;10.570;2023-10-09T13:51:48;15.70;99.90
21312;DHT22;18076;52.154;10.570;2023-10-09T13:54:15;15.70;99.90
21312;DHT22;18076;52.154;10.570;2023-10-09T13:56:54;15.70;99.90
21312;DHT22;18076;52.154;10.570;2023-10-09T13:59:20;15.70;99.90
21312;DHT22;18076;52.154;10.570;2023-10-09T14:02:01;15.80;99.90
21312;DHT22;18076;52.154;10.570;2023-10-09T14:04:34;15.70;99.90
21312;DHT22;18076;52.154;10.570;2023-10-09T14:07:03;15.80;99.90
21312;DHT22;18076;52.154;10.570;2023-10-09T14:12:29;15.80;99.90
21312;DHT22;18076;52.154;10.570;2023-10-09T14:14:55;15.80;99.90
21312;DHT22;18076;52.154;10.570;2023-10-09T14:17:21;15.80;99.90
21312;DHT22;18076;52.154;10.570;2023-10-09T14:19:51;15.90;99.90
21312;DHT22;18076;52.154;10.570;2023-10-09T14:22:17;15.90;99.90
21312;DHT22;18076;52.154;10.570;2023-10-09T14:24:47;15.90;99.90
21312;DHT22;18076;52.154;10.570;2023-10-09T14:27:13;15.90;99.90
21312;DHT22;18076;52.154;10.570;2023-10-09T14:32:46;16.00;99.90
21312;DHT22;18076;52.154;10.570;2023-10-09T14:35:17;16.10;99.90
21312;DHT22;18076;52.154;10.570;2023-10-09T14:37:46;16.10;99.90
21312;DHT22;18076;52.154;10.570;2023-10-09T14:40:12;16.00;99.90
21312;DHT22;18076;52.154;10.570;2023-10-09T14:42:46;16.10;99.90
21312;DHT22;18076;52.154;10.570;2023-10-09T14:45:12;16.10;99.90
21312;DHT22;18076;52.154;10.570;2023-10-09T14:47:41;16.10;99.90
21312;DHT22;18076;52.154;10.570;2023-10-09T14:50:07;16.10;99.90
21312;DHT22;18076;52.154;10.570;2023-10-09T14:52:39;16.10;99.90
21312;DHT22;18076;52.154;10.570;2023-10-09T14:55:07;16.20;99.90
21312;DHT22;18076;52.154;10.570;2023-10-09T14:57:34;16.20;99.90
21312;DHT22;18076;52.154;10.570;2023-10-09T15:00:00;16.10;99.90
21312;DHT22;18076;52.154;10.570;2023-10-09T15:02:32;16.20;99.90
21312;DHT22;18076;52.154;10.570;2023-10-09T15:04:58;16.20;99.90
21312;DHT22;18076;52.154;10.570;2023-10-09T15:07:24;16.20;99.90
21312;DHT22;18076;52.154;10.570;2023-10-09T15:09:49;16.20;99.90
21312;DHT22;18076;52.154;10.570;2023-10-09T15:12:16;16.20;99.90
21312;DHT22;18076;52.154;10.570;2023-10-09T15:14:41;16.20;99.90
21312;DHT22;18076;52.154;10.570;2023-10-09T15:17:08;16.20;99.90
21312;DHT22;18076;52.154;10.570;2023-10-09T15:19:34;16.20;99.90
21312;DHT22;18076;52.154;10.570;2023-10-09T15:21:59;16.20;99.90
21312;DHT22;18076;52.154;10.570;2023-10-09T15:24:25;16.20;99.90
21312;DHT22;18076;52.154;10.570;2023-10-09T15:26:53;16.20;99.90
21312;DHT22;18076;52.154;10.570;2023-10-09T15:29:19;16.20;99.90
21312;DHT22;18076;52.154;10.570;2023-10-09T15:31:51;16.20;99.90
21312;DHT22;18076;52.154;10.570;2023-10-09T15:34:16;16.20;99.90
21312;DHT22;18076;52.154;10.570;2023-10-09T15:36:44;16.20;99.90
21312;DHT22;18076;52.154;10.570;2023-10-09T15:39:12;16.20;99.90
21312;DHT22;18076;52.154;10.570;2023-10-09T15:41:38;16.30;99.90
21312;DHT22;18076;52.154;10.570;2023-10-09T15:44:05;16.20;99.90
21312;DHT22;18076;52.154;10.570;2023-10-09T15:46:31;16.30;99.90
21312;DHT22;18076;52.154;10.570;2023-10-09T15:49:00;16.20;99.90
21312;DHT22;18076;52.154;10.570;2023-10-09T15:51:26;16.30;99.90
21312;DHT22;18076;52.154;10.570;2023-10-09T15:53:52;16.20;99.90
21312;DHT22;18076;52.154;10.570;2023-10-09T15:56:18;16.20;99.90
21312;DHT22;18076;52.154;10.570;2023-10-09T15:58:43;16.20;99.90
21312;DHT22;18076;52.154;10.570;2023-10-09T16:01:10;16.20;99.90
21312;DHT22;18076;52.154;10.570;2023-10-09T16:03:47;16.20;99.90
21312;DHT22;18076;52.154;10.570;2023-10-09T16:06:13;16.20;99.90
21312;DHT22;18076;52.154;10.570;2023-10-09T16:08:45;16.20;99.90
21312;DHT22;18076;52.154;10.570;2023-10-09T16:11:11;16.20;99.90
21312;DHT22;18076;52.154;10.570;2023-10-09T16:13:37;16.20;99.90
21312;DHT22;18076;52.154;10.570;2023-10-09T16:16:04;16.10;99.90
21312;DHT22;18076;52.154;10.570;2023-10-09T16:18:33;16.20;99.90
21312;DHT22;18076;52.154;10.570;2023-10-09T16:21:03;16.10;99.90
21312;DHT22;18076;52.154;10.570;2023-10-09T16:23:32;16.10;99.90
21312;DHT22;18076;52.154;10.570;2023-10-09T16:25:58;16.10;99.90
21312;DHT22;18076;52.154;10.570;2023-10-09T16:28:28;16.10;99.90
21312;DHT22;18076;52.154;10.570;2023-10-09T16:30:53;16.10;99.90
21312;DHT22;18076;52.154;10.570;2023-10-09T16:33:23;16.10;99.90
21312;DHT22;18076;52.154;10.570;2023-10-09T16:35:49;16.10;99.90
21312;DHT22;18076;52.154;10.570;2023-10-09T16:38:22;16.10;99.90
21312;DHT22;18076;52.154;10.570;2023-10-09T16:40:53;16.10;99.90
21312;DHT22;18076;52.154;10.570;2023-10-09T16:43:19;16.10;99.90
21312;DHT22;18076;52.154;10.570;2023-10-09T16:45:45;16.10;99.90
21312;DHT22;18076;52.154;10.570;2023-10-09T16:48:11;16.10;99.90
21312;DHT22;18076;52.154;10.570;2023-10-09T16:50:39;16.10;99.90
21312;DHT22;18076;52.154;10.570;2023-10-09T16:53:05;16.10;99.90
21312;DHT22;18076;52.154;10.570;2023-10-09T16:55:40;16.10;99.90
21312;DHT22;18076;52.154;10.570;2023-10-09T16:58:09;16.10;99.90
21312;DHT22;18076;52.154;10.570;2023-10-09T17:00:35;16.10;99.90
21312;DHT22;18076;52.154;10.570;2023-10-09T17:03:03;16.10;99.90
21312;DHT22;18076;52.154;10.570;2023-10-09T17:05:32;16.10;99.90
21312;DHT22;18076;52.154;10.570;2023-10-09T17:08:04;16.10;99.90
21312;DHT22;18076;52.154;10.570;2023-10-09T17:10:35;16.10;99.90
21312;DHT22;18076;52.154;10.570;2023-10-09T17:13:02;16.10;99.90
21312;DHT22;18076;52.154;10.570;2023-10-09T17:15:35;16.10;99.90
21312;DHT22;18076;52.154;10.570;2023-10-09T17:18:01;16.10;99.90
21312;DHT22;18076;52.154;10.570;2023-10-09T17:20:27;16.10;99.90
21312;DHT22;18076;52.154;10.570;2023-10-09T17:22:53;16.10;99.90
21312;DHT22;18076;52.154;10.570;2023-10-09T17:25:18;16.10;99.90
21312;DHT22;18076;52.154;10.570;2023-10-09T17:27:44;16.10;99.90
21312;DHT22;18076;52.154;10.570;2023-10-09T17:30:10;16.10;99.90
21312;DHT22;18076;52.154;10.570;2023-10-09T17:32:36;16.10;99.90
21312;DHT22;18076;52.154;10.570;2023-10-09T17:35:03;16.10;99.90
21312;DHT22;18076;52.154;10.570;2023-10-09T17:37:29;16.10;99.90
21312;DHT22;18076;52.154;10.570;2023-10-09T17:39:55;16.10;99.90
21312;DHT22;18076;52.154;10.570;2023-10-09T17:42:20;16.10;99.90
21312;DHT22;18076;52.154;10.570;2023-10-09T17:47:50;16.10;99.90
21312;DHT22;18076;52.154;10.570;2023-10-09T17:50:18;16.00;99.90
21312;DHT22;18076;52.154;10.570;2023-10-09T17:55:52;16.00;99.90
21312;DHT22;18076;52.154;10.570;2023-10-09T17:58:21;16.00;99.90
21312;DHT22;18076;52.154;10.570;2023-10-09T18:00:54;16.00;99.90
21312;DHT22;18076;52.154;10.570;2023-10-09T18:03:23;15.90;99.90
21312;DHT22;18076;52.154;10.570;2023-10-09T18:05:53;15.90;99.90
21312;DHT22;18076;52.154;10.570;2023-10-09T18:08:18;16.00;99.90
21312;DHT22;18076;52.154;10.570;2023-10-09T18:10:44;15.90;99.90
21312;DHT22;18076;52.154;10.570;2023-10-09T18:13:11;16.00;99.90
21312;DHT22;18076;52.154;10.570;2023-10-09T18:15:45;15.90;99.90
21312;DHT22;18076;52.154;10.570;2023-10-09T18:18:14;15.90;99.90
21312;DHT22;18076;52.154;10.570;2023-10-09T18:20:46;15.90;99.90
21312;DHT22;18076;52.154;10.570;2023-10-09T18:23:15;15.90;99.90
21312;DHT22;18076;52.154;10.570;2023-10-09T18:25:47;15.90;99.90
21312;DHT22;18076;52.154;10.570;2023-10-09T18:28:15;15.90;99.90
21312;DHT22;18076;52.154;10.570;2023-10-09T18:30:40;16.00;99.90
21312;DHT22;18076;52.154;10.570;2023-10-09T18:33:10;15.90;99.90
21312;DHT22;18076;52.154;10.570;2023-10-09T18:35:38;15.90;99.90
21312;DHT22;18076;52.154;10.570;2023-10-09T18:38:04;15.90;99.90
21312;DHT22;18076;52.154;10.570;2023-10-09T18:40:30;15.90;99.90
21312;DHT22;18076;52.154;10.570;2023-10-09T18:43:01;15.90;99.90
21312;DHT22;18076;52.154;10.570;2023-10-09T18:45:38;15.90;99.90
21312;DHT22;18076;52.154;10.570;2023-10-09T18:48:06;15.90;99.90
21312;DHT22;18076;52.154;10.570;2023-10-09T18:50:37;15.80;99.90
21312;DHT22;18076;52.154;10.570;2023-10-09T18:53:07;15.80;99.90
21312;DHT22;18076;52.154;10.570;2023-10-09T18:55:36;15.80;99.90
21312;DHT22;18076;52.154;10.570;2023-10-09T18:58:01;15.80;99.90
21312;DHT22;18076;52.154;10.570;2023-10-09T19:00:27;15.70;99.90
21312;DHT22;18076;52.154;10.570;2023-10-09T19:02:56;15.70;99.90
21312;DHT22;18076;52.154;10.570;2023-10-09T19:05:22;15.70;99.90
21312;DHT22;18076;52.154;10.570;2023-10-09T19:07:47;15.70;99.90
21312;DHT22;18076;52.154;10.570;2023-10-09T19:10:13;15.70;99.90
21312;DHT22;18076;52.154;10.570;2023-10-09T19:12:43;15.70;99.90
21312;DHT22;18076;52.154;10.570;2023-10-09T19:15:09;15.70;99.90
21312;DHT22;18076;52.154;10.570;2023-10-09T19:17:36;15.70;99.90
21312;DHT22;18076;52.154;10.570;2023-10-09T19:20:02;15.60;99.90
21312;DHT22;18076;52.154;10.570;2023-10-09T19:22:28;15.70;99.90
21312;DHT22;18076;52.154;10.570;2023-10-09T19:24:56;15.70;99.90
21312;DHT22;18076;52.154;10.570;2023-10-09T19:27:26;15.60;99.90
21312;DHT22;18076;52.154;10.570;2023-10-09T19:30:07;15.60;99.90
21312;DHT22;18076;52.154;10.570;2023-10-09T19:32:38;15.50;99.90
21312;DHT22;18076;52.154;10.570;2023-10-09T19:35:07;15.40;99.90
21312;DHT22;18076;52.154;10.570;2023-10-09T19:37:33;15.40;99.90
21312;DHT22;18076;52.154;10.570;2023-10-09T19:39:58;15.40;99.90
21312;DHT22;18076;52.154;10.570;2023-10-09T19:42:24;15.30;99.90
21312;DHT22;18076;52.154;10.570;2023-10-09T19:44:50;15.20;99.90
21312;DHT22;18076;52.154;10.570;2023-10-09T19:47:17;15.20;99.90
21312;DHT22;18076;52.154;10.570;2023-10-09T19:49:45;15.30;99.90
21312;DHT22;18076;52.154;10.570;2023-10-09T19:52:11;15.30;99.90
21312;DHT22;18076;52.154;10.570;2023-10-09T19:54:44;15.30;99.90
21312;DHT22;18076;52.154;10.570;2023-10-09T19:57:15;15.20;99.90
21312;DHT22;18076;52.154;10.570;2023-10-09T19:59:42;15.20;99.90
21312;DHT22;18076;52.154;10.570;2023-10-09T20:02:13;15.20;99.90
21312;DHT22;18076;52.154;10.570;2023-10-09T20:04:42;15.20;99.90
21312;DHT22;18076;52.154;10.570;2023-10-09T20:07:08;15.20;99.90
21312;DHT22;18076;52.154;10.570;2023-10-09T20:09:33;15.20;99.90
21312;DHT22;18076;52.154;10.570;2023-10-09T20:11:59;15.20;99.90
21312;DHT22;18076;52.154;10.570;2023-10-09T20:14:27;15.20;99.90
21312;DHT22;18076;52.154;10.570;2023-10-09T20:16:53;15.20;99.90
21312;DHT22;18076;52.154;10.570;2023-10-09T20:19:19;15.20;99.90
21312;DHT22;18076;52.154;10.570;2023-10-09T20:21:44;15.20;99.90
21312;DHT22;18076;52.154;10.570;2023-10-09T20:24:10;15.20;99.90
21312;DHT22;18076;52.154;10.570;2023-10-09T20:26:39;15.20;99.90
21312;DHT22;18076;52.154;10.570;2023-10-09T20:29:08;15.20;99.90
21312;DHT22;18076;52.154;10.570;2023-10-09T20:31:34;15.20;99.90
21312;DHT22;18076;52.154;10.570;2023-10-09T20:34:03;15.10;99.90
21312;DHT22;18076;52.154;10.570;2023-10-09T20:36:28;15.20;99.90
21312;DHT22;18076;52.154;10.570;2023-10-09T20:38:54;15.20;99.90
21312;DHT22;18076;52.154;10.570;2023-10-09T20:41:19;15.20;99.90
21312;DHT22;18076;52.154;10.570;2023-10-09T20:43:49;15.20;99.90
21312;DHT22;18076;52.154;10.570;2023-10-09T20:46:14;15.20;99.90
21312;DHT22;18076;52.154;10.570;2023-10-09T20:48:43;15.20;99.90
21312;DHT22;18076;52.154;10.570;2023-10-09T20:51:12;15.20;99.90
21312;DHT22;18076;52.154;10.570;2023-10-09T20:53:38;15.20;99.90
21312;DHT22;18076;52.154;10.570;2023-10-09T20:56:04;15.10;99.90
21312;DHT22;18076;52.154;10.570;2023-10-09T20:58:30;15.20;99.90
21312;DHT22;18076;52.154;10.570;2023-10-09T21:00:56;15.20;99.90
21312;DHT22;18076;52.154;10.570;2023-10-09T21:03:25;15.20;99.90
21312;DHT22;18076;52.154;10.570;2023-10-09T21:05:51;15.20;99.90
21312;DHT22;18076;52.154;10.570;2023-10-09T21:08:19;15.10;99.90
21312;DHT22;18076;52.154;10.570;2023-10-09T21:10:45;15.20;99.90
21312;DHT22;18076;52.154;10.570;2023-10-09T21:13:11;15.20;99.90
21312;DHT22;18076;52.154;10.570;2023-10-09T21:15:36;15.20;99.90
21312;DHT22;18076;52.154;10.570;2023-10-09T21:18:02;15.10;99.90
21312;DHT22;18076;52.154;10.570;2023-10-09T21:20:29;15.10;99.90
21312;DHT22;18076;52.154;10.570;2023-10-09T21:22:55;15.10;99.90
21312;DHT22;18076;52.154;10.570;2023-10-09T21:25:22;15.20;99.90
21312;DHT22;18076;52.154;10.570;2023-10-09T21:27:47;15.10;99.90
21312;DHT22;18076;52.154;10.570;2023-10-09T21:30:13;15.10;99.90
21312;DHT22;18076;52.154;10.570;2023-10-09T21:32:44;15.10;99.90
21312;DHT22;18076;52.154;10.570;2023-10-09T21:35:11;15.10;99.90
21312;DHT22;18076;52.154;10.570;2023-10-09T21:37:52;15.10;99.90
21312;DHT22;18076;52.154;10.570;2023-10-09T21:40:18;15.10;99.90
21312;DHT22;18076;52.154;10.570;2023-10-09T21:42:59;15.10;99.90
21312;DHT22;18076;52.154;10.570;2023-10-09T21:45:25;15.10;99.90
21312;DHT22;18076;52.154;10.570;2023-10-09T21:47:52;15.10;99.90
21312;DHT22;18076;52.154;10.570;2023-10-09T21:50:25;15.10;99.90
21312;DHT22;18076;52.154;10.570;2023-10-09T21:52:51;15.10;99.90
21312;DHT22;18076;52.154;10.570;2023-10-09T21:55:17;15.20;99.90
21312;DHT22;18076;52.154;10.570;2023-10-09T21:57:42;15.10;99.90
21312;DHT22;18076;52.154;10.570;2023-10-09T22:00:09;15.10;99.90
21312;DHT22;18076;52.154;10.570;2023-10-09T22:02:44;15.10;99.90
21312;DHT22;18076;52.154;10.570;2023-10-09T22:05:15;15.00;99.90
21312;DHT22;18076;52.154;10.570;2023-10-09T22:07:44;15.00;99.90
21312;DHT22;18076;52.154;10.570;2023-10-09T22:10:11;15.00;99.90
21312;DHT22;18076;52.154;10.570;2023-10-09T22:12:46;15.00;99.90
21312;DHT22;18076;52.154;10.570;2023-10-09T22:15:15;15.00;99.90
21312;DHT22;18076;52.154;10.570;2023-10-09T22:17:41;14.90;99.90
21312;DHT22;18076;52.154;10.570;2023-10-09T22:20:11;14.90;99.90
21312;DHT22;18076;52.154;10.570;2023-10-09T22:22:41;14.90;99.90
21312;DHT22;18076;52.154;10.570;2023-10-09T22:25:10;14.80;99.90
21312;DHT22;18076;52.154;10.570;2023-10-09T22:27:36;14.80;99.90
21312;DHT22;18076;52.154;10.570;2023-10-09T22:30:05;14.80;99.90
21312;DHT22;18076;52.154;10.570;2023-10-09T22:32:38;14.70;99.90
21312;DHT22;18076;52.154;10.570;2023-10-09T22:35:04;14.70;99.90
21312;DHT22;18076;52.154;10.570;2023-10-09T22:37:36;14.70;99.90
21312;DHT22;18076;52.154;10.570;2023-10-09T22:40:05;14.70;99.90
21312;DHT22;18076;52.154;10.570;2023-10-09T22:42:46;14.70;99.90
21312;DHT22;18076;52.154;10.570;2023-10-09T22:45:12;14.70;99.90
21312;DHT22;18076;52.154;10.570;2023-10-09T22:47:39;14.70;99.90
21312;DHT22;18076;52.154;10.570;2023-10-09T22:50:10;14.70;99.90
21312;DHT22;18076;52.154;10.570;2023-10-09T22:52:49;14.70;99.90
21312;DHT22;18076;52.154;10.570;2023-10-09T22:55:18;14.70;99.90
21312;DHT22;18076;52.154;10.570;2023-10-09T22:57:45;14.70;99.90
21312;DHT22;18076;52.154;10.570;2023-10-09T23:00:14;14.70;99.90
21312;DHT22;18076;52.154;10.570;2023-10-09T23:03:00;14.70;99.90
21312;DHT22;18076;52.154;10.570;2023-10-09T23:05:25;14.70;99.90
21312;DHT22;18076;52.154;10.570;2023-10-09T23:07:58;14.60;99.90
21312;DHT22;18076;52.154;10.570;2023-10-09T23:10:27;14.60;99.90
21312;DHT22;18076;52.154;10.570;2023-10-09T23:12:53;14.60;99.90
21312;DHT22;18076;52.154;10.570;2023-10-09T23:15:19;14.60;99.90
21312;DHT22;18076;52.154;10.570;2023-10-09T23:17:58;14.70;99.90
21312;DHT22;18076;52.154;10.570;2023-10-09T23:20:53;14.60;99.90
21312;DHT22;18076;52.154;10.570;2023-10-09T23:23:37;14.70;99.90
21312;DHT22;18076;52.154;10.570;2023-10-09T23:26:06;14.70;99.90
21312;DHT22;18076;52.154;10.570;2023-10-09T23:28:38;14.70;99.90
21312;DHT22;18076;52.154;10.570;2023-10-09T23:31:04;14.70;99.90
21312;DHT22;18076;52.154;10.570;2023-10-09T23:33:49;14.70;99.90
21312;DHT22;18076;52.154;10.570;2023-10-09T23:36:17;14.80;99.90
21312;DHT22;18076;52.154;10.570;2023-10-09T23:38:54;14.70;99.90
21312;DHT22;18076;52.154;10.570;2023-10-09T23:41:40;14.80;99.90
21312;DHT22;18076;52.154;10.570;2023-10-09T23:44:26;14.80;99.90
21312;DHT22;18076;52.154;10.570;2023-10-09T23:47:00;14.80;99.90
21312;DHT22;18076;52.154;10.570;2023-10-09T23:49:29;14.80;99.90
21312;DHT22;18076;52.154;10.570;2023-10-09T23:51:55;14.70;99.90
21312;DHT22;18076;52.154;10.570;2023-10-09T23:54:21;14.70;99.90
21312;DHT22;18076;52.154;10.570;2023-10-09T23:56:49;14.70;99.90
21312;DHT22;18076;52.154;10.570;2023-10-09T23:59:15;14.70;99.90
